Saint Helen, MI

3:18 PM EST on February 01, 2015 (GMT -0500)
Lake Saint Helen | Change Station
CLOSE
Current Station
Personal Weather Station
Location: Richfield Township, MI
Elevation: 1161 ft
Nearby Weather Stations

Elev 1161 ft 44.38 °N, 84.42 °W | Updated 6 minutes ago

Snow
Snow
11.8 °F
Feels Like 6 °F
N
3.2
Wind Variable Wind from North

Today
High -- | Low -- °F
--% Chance of Precip.
Yesterday
High -- | Low -- °F
Precip. -- in
7:56 AM 5:46 PM
Waxing Gibbous, 96% visible
Pressure 30.14 in
Visibility 2.5 miles
Clouds Mostly Cloudy 3700 ft
Overcast 4600 ft
Windchill 6 °F
Dew Point 4 °F
Humidity 70%
Rainfall 0.00 in
Snow Depth Not available.
UV 1 out of 12
Pollen .10 out of 12
Air Quality Not available.
Flu Activity Not available.
METAR KHTL 011953Z AUTO 06015KT 2 1/2SM -SN BKN037 OVC046 M12/M17 A3006 RMK AO2 SLP205 P0000 T11221167

More Conditions Fewer Conditions

Pressure 30.14 in
Visibility 2.5 miles
Clouds Mostly Cloudy 3700 ft
Overcast 4600 ft
Windchill 6 °F
Dew Point 4 °F
Humidity 70%
Rainfall 0.00 in
Snow Depth Not available.
UV 1 out of 12
Pollen .10 out of 12
Air Quality Not available.
Flu Activity Not available.
METAR KHTL 011953Z AUTO 06015KT 2 1/2SM -SN BKN037 OVC046 M12/M17 A3006 RMK AO2 SLP205 P0000 T11221167

More Conditions Fewer Conditions

Nowcast | as of 3:00 PM EST on February 1, 2015

At 4 PM...snow. Temperature 10 above. At 6 PM...cloudy. Chance of snow. Temperature 9 above. At 8 PM...cloudy. Chance of snow. Temperature 8 above. At 10 PM...cloudy. Chance of snow. Temperature 6 above. Northeast winds 16 mph with gusts to 30 mph. Wind chill 11 below.

×

10-Day Weather Forecast

Almanac

Astronomy

Feb. 01, 2015 Rise Set
Actual Time
Civil Twilight
Nautical Twilight
Astronomical Twilight
Moon
Length of Visible Light
Length of Day
Tomorrow will be .
, % of the Moon is Illuminated

Today's Extremes

State Highs State Lows

Community

WunderPhotos

Upload Photos

1,792,485 photos uploaded!

WunderBlogs® & News

Nearby

Air Quality

  Air Quality AQ Index Pollutant
Not available.

Snow Depth

Station Depth Elevation

Earthquake Activity

City Distance Mag. Time & Date
Minimum magnitude displayed is 2.5.

Coastal Water Temperatures

Place Temperature

Nearby Weather Stations